sensor_id;sensor_type;location;lat;lon;timestamp;P1;durP1;ratioP1;P2;durP2;ratioP2
7267;SDS011;3675;43.276;27.962;2024-01-30T00:00:44;17.27;;;8.57;;
7267;SDS011;3675;43.276;27.962;2024-01-30T00:05:54;16.25;;;6.63;;
7267;SDS011;3675;43.276;27.962;2024-01-30T00:08:29;16.65;;;8.23;;
7267;SDS011;3675;43.276;27.962;2024-01-30T00:11:07;17.58;;;9.38;;
7267;SDS011;3675;43.276;27.962;2024-01-30T00:13:39;12.07;;;7.45;;
7267;SDS011;3675;43.276;27.962;2024-01-30T00:16:21;19.08;;;8.38;;
7267;SDS011;3675;43.276;27.962;2024-01-30T00:18:56;14.07;;;8.07;;
7267;SDS011;3675;43.276;27.962;2024-01-30T00:21:32;17.65;;;7.40;;
7267;SDS011;3675;43.276;27.962;2024-01-30T00:24:09;18.98;;;8.18;;
7267;SDS011;3675;43.276;27.962;2024-01-30T00:26:41;20.00;;;8.57;;
7267;SDS011;3675;43.276;27.962;2024-01-30T00:29:16;17.73;;;8.38;;
7267;SDS011;3675;43.276;27.962;2024-01-30T00:31:51;20.30;;;9.65;;
7267;SDS011;3675;43.276;27.962;2024-01-30T00:34:42;17.88;;;7.85;;
7267;SDS011;3675;43.276;27.962;2024-01-30T00:37:18;19.20;;;7.97;;
7267;SDS011;3675;43.276;27.962;2024-01-30T00:39:51;20.95;;;8.32;;
7267;SDS011;3675;43.276;27.962;2024-01-30T00:42:24;19.58;;;9.52;;
7267;SDS011;3675;43.276;27.962;2024-01-30T00:44:57;17.67;;;8.02;;
7267;SDS011;3675;43.276;27.962;2024-01-30T00:47:34;18.92;;;8.43;;
7267;SDS011;3675;43.276;27.962;2024-01-30T00:50:06;23.13;;;8.60;;
7267;SDS011;3675;43.276;27.962;2024-01-30T00:52:43;22.48;;;9.13;;
7267;SDS011;3675;43.276;27.962;2024-01-30T00:55:19;23.45;;;9.48;;
7267;SDS011;3675;43.276;27.962;2024-01-30T00:57:57;21.50;;;8.50;;
7267;SDS011;3675;43.276;27.962;2024-01-30T01:00:31;19.70;;;8.75;;
7267;SDS011;3675;43.276;27.962;2024-01-30T01:03:12;18.73;;;7.95;;
7267;SDS011;3675;43.276;27.962;2024-01-30T01:08:47;18.17;;;8.23;;
7267;SDS011;3675;43.276;27.962;2024-01-30T01:11:35;19.73;;;8.75;;
7267;SDS011;3675;43.276;27.962;2024-01-30T01:14:09;17.67;;;7.07;;
7267;SDS011;3675;43.276;27.962;2024-01-30T01:16:59;16.17;;;8.32;;
7267;SDS011;3675;43.276;27.962;2024-01-30T01:19:35;20.92;;;8.20;;
7267;SDS011;3675;43.276;27.962;2024-01-30T01:22:07;23.98;;;7.80;;
7267;SDS011;3675;43.276;27.962;2024-01-30T01:24:44;18.15;;;7.75;;
7267;SDS011;3675;43.276;27.962;2024-01-30T01:27:25;21.98;;;9.25;;
7267;SDS011;3675;43.276;27.962;2024-01-30T01:30:03;18.20;;;9.30;;
7267;SDS011;3675;43.276;27.962;2024-01-30T01:32:36;18.33;;;7.88;;
7267;SDS011;3675;43.276;27.962;2024-01-30T01:35:24;20.48;;;9.40;;
7267;SDS011;3675;43.276;27.962;2024-01-30T01:37:58;20.95;;;8.27;;
7267;SDS011;3675;43.276;27.962;2024-01-30T01:40:38;23.65;;;10.95;;
7267;SDS011;3675;43.276;27.962;2024-01-30T01:43:21;26.25;;;8.75;;
7267;SDS011;3675;43.276;27.962;2024-01-30T01:45:55;23.38;;;9.00;;
7267;SDS011;3675;43.276;27.962;2024-01-30T01:48:39;16.92;;;8.52;;
7267;SDS011;3675;43.276;27.962;2024-01-30T01:51:15;19.42;;;8.75;;
7267;SDS011;3675;43.276;27.962;2024-01-30T01:54:15;21.88;;;9.27;;
7267;SDS011;3675;43.276;27.962;2024-01-30T01:56:54;20.70;;;7.93;;
7267;SDS011;3675;43.276;27.962;2024-01-30T01:59:32;20.98;;;8.75;;
7267;SDS011;3675;43.276;27.962;2024-01-30T02:02:10;22.42;;;6.80;;
7267;SDS011;3675;43.276;27.962;2024-01-30T02:04:49;23.35;;;9.20;;
7267;SDS011;3675;43.276;27.962;2024-01-30T02:07:31;19.85;;;7.88;;
7267;SDS011;3675;43.276;27.962;2024-01-30T02:10:03;19.55;;;8.38;;
7267;SDS011;3675;43.276;27.962;2024-01-30T02:12:46;17.75;;;8.43;;
7267;SDS011;3675;43.276;27.962;2024-01-30T02:15:20;18.63;;;9.75;;
7267;SDS011;3675;43.276;27.962;2024-01-30T02:17:57;25.15;;;8.27;;
7267;SDS011;3675;43.276;27.962;2024-01-30T02:20:30;17.08;;;8.38;;
7267;SDS011;3675;43.276;27.962;2024-01-30T02:23:15;18.05;;;8.50;;
7267;SDS011;3675;43.276;27.962;2024-01-30T02:25:59;13.98;;;6.95;;
7267;SDS011;3675;43.276;27.962;2024-01-30T02:28:35;18.63;;;8.25;;
7267;SDS011;3675;43.276;27.962;2024-01-30T02:31:08;24.15;;;8.27;;
7267;SDS011;3675;43.276;27.962;2024-01-30T02:33:41;19.25;;;8.88;;
7267;SDS011;3675;43.276;27.962;2024-01-30T02:36:15;17.70;;;7.93;;
7267;SDS011;3675;43.276;27.962;2024-01-30T02:38:55;20.88;;;8.93;;
7267;SDS011;3675;43.276;27.962;2024-01-30T02:41:26;21.60;;;9.35;;
7267;SDS011;3675;43.276;27.962;2024-01-30T02:44:15;19.20;;;8.80;;
7267;SDS011;3675;43.276;27.962;2024-01-30T02:46:52;24.85;;;8.63;;
7267;SDS011;3675;43.276;27.962;2024-01-30T02:49:31;19.27;;;7.93;;
7267;SDS011;3675;43.276;27.962;2024-01-30T02:52:14;21.73;;;10.10;;
7267;SDS011;3675;43.276;27.962;2024-01-30T02:55:11;20.00;;;8.60;;
7267;SDS011;3675;43.276;27.962;2024-01-30T02:57:58;21.90;;;9.25;;
7267;SDS011;3675;43.276;27.962;2024-01-30T03:00:33;18.88;;;8.73;;
7267;SDS011;3675;43.276;27.962;2024-01-30T03:03:29;20.98;;;8.50;;
7267;SDS011;3675;43.276;27.962;2024-01-30T03:06:20;19.75;;;8.80;;
7267;SDS011;3675;43.276;27.962;2024-01-30T03:08:58;21.15;;;9.07;;
7267;SDS011;3675;43.276;27.962;2024-01-30T03:11:47;13.30;;;7.53;;
7267;SDS011;3675;43.276;27.962;2024-01-30T03:14:31;21.10;;;9.45;;
7267;SDS011;3675;43.276;27.962;2024-01-30T03:17:15;22.92;;;9.65;;
7267;SDS011;3675;43.276;27.962;2024-01-30T03:20:00;20.25;;;8.75;;
7267;SDS011;3675;43.276;27.962;2024-01-30T03:22:39;17.27;;;8.52;;
7267;SDS011;3675;43.276;27.962;2024-01-30T03:25:20;21.00;;;9.38;;
7267;SDS011;3675;43.276;27.962;2024-01-30T03:28:21;18.55;;;7.93;;
7267;SDS011;3675;43.276;27.962;2024-01-30T03:31:02;25.60;;;9.30;;
7267;SDS011;3675;43.276;27.962;2024-01-30T03:33:50;17.25;;;8.05;;
7267;SDS011;3675;43.276;27.962;2024-01-30T03:36:28;15.93;;;7.25;;
7267;SDS011;3675;43.276;27.962;2024-01-30T03:39:07;20.90;;;8.27;;
7267;SDS011;3675;43.276;27.962;2024-01-30T03:41:49;16.77;;;6.55;;
7267;SDS011;3675;43.276;27.962;2024-01-30T03:44:36;20.95;;;8.65;;
7267;SDS011;3675;43.276;27.962;2024-01-30T03:47:13;13.63;;;7.75;;
7267;SDS011;3675;43.276;27.962;2024-01-30T03:49:49;17.15;;;6.65;;
7267;SDS011;3675;43.276;27.962;2024-01-30T03:52:31;17.00;;;7.63;;
7267;SDS011;3675;43.276;27.962;2024-01-30T03:55:10;15.18;;;7.68;;
7267;SDS011;3675;43.276;27.962;2024-01-30T03:57:57;18.42;;;8.55;;
7267;SDS011;3675;43.276;27.962;2024-01-30T04:00:40;16.48;;;7.35;;
7267;SDS011;3675;43.276;27.962;2024-01-30T04:03:21;15.10;;;6.85;;
7267;SDS011;3675;43.276;27.962;2024-01-30T04:06:11;24.08;;;9.32;;
7267;SDS011;3675;43.276;27.962;2024-01-30T04:08:49;19.25;;;9.25;;
7267;SDS011;3675;43.276;27.962;2024-01-30T04:14:06;18.63;;;8.68;;
7267;SDS011;3675;43.276;27.962;2024-01-30T04:17:06;17.35;;;8.80;;
7267;SDS011;3675;43.276;27.962;2024-01-30T04:19:48;15.98;;;7.20;;
7267;SDS011;3675;43.276;27.962;2024-01-30T04:22:22;18.88;;;8.82;;
7267;SDS011;3675;43.276;27.962;2024-01-30T04:25:04;13.02;;;6.05;;
7267;SDS011;3675;43.276;27.962;2024-01-30T04:27:57;18.40;;;7.15;;
7267;SDS011;3675;43.276;27.962;2024-01-30T04:30:51;21.73;;;8.77;;
7267;SDS011;3675;43.276;27.962;2024-01-30T04:33:40;15.13;;;7.90;;
7267;SDS011;3675;43.276;27.962;2024-01-30T04:36:44;19.08;;;6.45;;
7267;SDS011;3675;43.276;27.962;2024-01-30T04:39:34;16.73;;;7.70;;
7267;SDS011;3675;43.276;27.962;2024-01-30T04:42:11;15.95;;;5.85;;
7267;SDS011;3675;43.276;27.962;2024-01-30T04:44:58;17.90;;;6.75;;
7267;SDS011;3675;43.276;27.962;2024-01-30T04:47:39;18.13;;;7.43;;
7267;SDS011;3675;43.276;27.962;2024-01-30T04:50:21;12.15;;;7.85;;
7267;SDS011;3675;43.276;27.962;2024-01-30T04:53:12;15.95;;;6.85;;
7267;SDS011;3675;43.276;27.962;2024-01-30T04:55:56;18.98;;;7.93;;
7267;SDS011;3675;43.276;27.962;2024-01-30T04:58:41;14.82;;;5.85;;
7267;SDS011;3675;43.276;27.962;2024-01-30T05:01:22;17.80;;;6.18;;
7267;SDS011;3675;43.276;27.962;2024-01-30T05:04:09;15.93;;;7.47;;
7267;SDS011;3675;43.276;27.962;2024-01-30T05:06:50;17.15;;;7.43;;
7267;SDS011;3675;43.276;27.962;2024-01-30T05:09:29;17.80;;;7.32;;
7267;SDS011;3675;43.276;27.962;2024-01-30T05:12:11;15.07;;;7.22;;
7267;SDS011;3675;43.276;27.962;2024-01-30T05:14:53;14.15;;;6.32;;
7267;SDS011;3675;43.276;27.962;2024-01-30T05:17:46;18.83;;;7.72;;
7267;SDS011;3675;43.276;27.962;2024-01-30T05:20:27;16.33;;;8.52;;
7267;SDS011;3675;43.276;27.962;2024-01-30T05:25:54;12.40;;;5.90;;
7267;SDS011;3675;43.276;27.962;2024-01-30T05:28:32;20.45;;;8.27;;
7267;SDS011;3675;43.276;27.962;2024-01-30T05:31:14;14.73;;;6.00;;
7267;SDS011;3675;43.276;27.962;2024-01-30T05:33:48;15.85;;;7.38;;
7267;SDS011;3675;43.276;27.962;2024-01-30T05:36:33;17.33;;;5.88;;
7267;SDS011;3675;43.276;27.962;2024-01-30T05:39:15;14.05;;;6.28;;
7267;SDS011;3675;43.276;27.962;2024-01-30T05:41:58;13.32;;;5.35;;
7267;SDS011;3675;43.276;27.962;2024-01-30T05:44:40;14.05;;;6.93;;
7267;SDS011;3675;43.276;27.962;2024-01-30T05:47:24;15.90;;;7.47;;
7267;SDS011;3675;43.276;27.962;2024-01-30T05:50:13;19.25;;;6.80;;
7267;SDS011;3675;43.276;27.962;2024-01-30T05:52:58;16.65;;;6.95;;
7267;SDS011;3675;43.276;27.962;2024-01-30T05:55:34;18.42;;;7.45;;
7267;SDS011;3675;43.276;27.962;2024-01-30T05:58:25;16.42;;;6.18;;
7267;SDS011;3675;43.276;27.962;2024-01-30T06:01:13;13.77;;;5.90;;
7267;SDS011;3675;43.276;27.962;2024-01-30T06:04:02;13.18;;;6.28;;
7267;SDS011;3675;43.276;27.962;2024-01-30T06:06:47;13.65;;;6.63;;
7267;SDS011;3675;43.276;27.962;2024-01-30T06:09:27;10.68;;;5.70;;
7267;SDS011;3675;43.276;27.962;2024-01-30T06:12:13;13.95;;;5.85;;
7267;SDS011;3675;43.276;27.962;2024-01-30T06:15:09;11.07;;;5.13;;
7267;SDS011;3675;43.276;27.962;2024-01-30T06:17:47;14.23;;;5.80;;
7267;SDS011;3675;43.276;27.962;2024-01-30T06:20:58;12.63;;;5.85;;
7267;SDS011;3675;43.276;27.962;2024-01-30T06:24:16;14.82;;;7.13;;
7267;SDS011;3675;43.276;27.962;2024-01-30T06:26:51;13.02;;;5.68;;
7267;SDS011;3675;43.276;27.962;2024-01-30T06:29:50;13.00;;;5.53;;
7267;SDS011;3675;43.276;27.962;2024-01-30T06:32:32;13.68;;;5.38;;
7267;SDS011;3675;43.276;27.962;2024-01-30T06:35:11;12.07;;;5.68;;
7267;SDS011;3675;43.276;27.962;2024-01-30T06:37:53;9.55;;;5.35;;
7267;SDS011;3675;43.276;27.962;2024-01-30T06:40:42;13.10;;;5.43;;
7267;SDS011;3675;43.276;27.962;2024-01-30T06:43:29;10.73;;;5.35;;
7267;SDS011;3675;43.276;27.962;2024-01-30T06:46:26;19.13;;;7.97;;
7267;SDS011;3675;43.276;27.962;2024-01-30T06:49:03;11.30;;;5.45;;
7267;SDS011;3675;43.276;27.962;2024-01-30T06:51:43;12.05;;;5.72;;
7267;SDS011;3675;43.276;27.962;2024-01-30T06:54:27;13.73;;;5.40;;
7267;SDS011;3675;43.276;27.962;2024-01-30T06:57:26;11.75;;;4.63;;
7267;SDS011;3675;43.276;27.962;2024-01-30T07:00:06;11.15;;;5.10;;
7267;SDS011;3675;43.276;27.962;2024-01-30T07:02:48;14.95;;;5.22;;
7267;SDS011;3675;43.276;27.962;2024-01-30T07:05:25;11.55;;;4.80;;
7267;SDS011;3675;43.276;27.962;2024-01-30T07:08:12;13.75;;;5.38;;
7267;SDS011;3675;43.276;27.962;2024-01-30T07:10:57;11.73;;;5.15;;
7267;SDS011;3675;43.276;27.962;2024-01-30T07:13:41;10.73;;;4.43;;
7267;SDS011;3675;43.276;27.962;2024-01-30T07:16:22;12.30;;;6.60;;
7267;SDS011;3675;43.276;27.962;2024-01-30T07:19:17;8.98;;;4.82;;
7267;SDS011;3675;43.276;27.962;2024-01-30T07:22:01;11.18;;;4.43;;
7267;SDS011;3675;43.276;27.962;2024-01-30T07:24:42;13.70;;;6.45;;
7267;SDS011;3675;43.276;27.962;2024-01-30T07:27:28;13.43;;;5.25;;
7267;SDS011;3675;43.276;27.962;2024-01-30T07:30:13;15.27;;;5.30;;
7267;SDS011;3675;43.276;27.962;2024-01-30T07:32:52;16.88;;;6.35;;
7267;SDS011;3675;43.276;27.962;2024-01-30T07:36:06;10.45;;;4.68;;
7267;SDS011;3675;43.276;27.962;2024-01-30T07:38:48;13.07;;;5.07;;
7267;SDS011;3675;43.276;27.962;2024-01-30T07:41:33;12.65;;;5.63;;
7267;SDS011;3675;43.276;27.962;2024-01-30T07:44:17;12.82;;;5.35;;
7267;SDS011;3675;43.276;27.962;2024-01-30T07:46:58;10.93;;;5.43;;
7267;SDS011;3675;43.276;27.962;2024-01-30T07:49:41;12.38;;;5.18;;
7267;SDS011;3675;43.276;27.962;2024-01-30T07:52:48;10.32;;;4.90;;
7267;SDS011;3675;43.276;27.962;2024-01-30T07:55:35;9.55;;;5.07;;
7267;SDS011;3675;43.276;27.962;2024-01-30T07:58:23;10.65;;;4.70;;
7267;SDS011;3675;43.276;27.962;2024-01-30T08:01:07;10.73;;;4.70;;
7267;SDS011;3675;43.276;27.962;2024-01-30T08:04:09;9.25;;;4.88;;
7267;SDS011;3675;43.276;27.962;2024-01-30T08:06:55;9.55;;;4.55;;
7267;SDS011;3675;43.276;27.962;2024-01-30T08:09:49;7.05;;;4.45;;
7267;SDS011;3675;43.276;27.962;2024-01-30T08:12:42;11.65;;;4.40;;
7267;SDS011;3675;43.276;27.962;2024-01-30T08:15:24;11.55;;;5.40;;
7267;SDS011;3675;43.276;27.962;2024-01-30T08:18:07;16.60;;;5.78;;
7267;SDS011;3675;43.276;27.962;2024-01-30T08:20:42;16.05;;;5.03;;
7267;SDS011;3675;43.276;27.962;2024-01-30T08:23:25;14.10;;;5.22;;
7267;SDS011;3675;43.276;27.962;2024-01-30T08:26:22;25.02;;;5.93;;
7267;SDS011;3675;43.276;27.962;2024-01-30T08:29:15;7.97;;;4.50;;
7267;SDS011;3675;43.276;27.962;2024-01-30T08:32:08;8.82;;;4.60;;
7267;SDS011;3675;43.276;27.962;2024-01-30T08:35:04;17.48;;;5.60;;
7267;SDS011;3675;43.276;27.962;2024-01-30T08:37:52;8.35;;;4.55;;
7267;SDS011;3675;43.276;27.962;2024-01-30T08:40:34;11.85;;;5.05;;
7267;SDS011;3675;43.276;27.962;2024-01-30T08:43:21;6.53;;;4.07;;
7267;SDS011;3675;43.276;27.962;2024-01-30T08:46:03;14.73;;;6.03;;
7267;SDS011;3675;43.276;27.962;2024-01-30T08:48:54;11.73;;;5.70;;
7267;SDS011;3675;43.276;27.962;2024-01-30T08:51:52;12.35;;;5.82;;
7267;SDS011;3675;43.276;27.962;2024-01-30T08:54:29;10.63;;;5.38;;
7267;SDS011;3675;43.276;27.962;2024-01-30T08:57:18;9.20;;;4.22;;
7267;SDS011;3675;43.276;27.962;2024-01-30T08:59:59;5.32;;;3.40;;
7267;SDS011;3675;43.276;27.962;2024-01-30T09:02:52;6.60;;;4.75;;
7267;SDS011;3675;43.276;27.962;2024-01-30T09:05:25;10.38;;;4.25;;
7267;SDS011;3675;43.276;27.962;2024-01-30T09:08:07;18.55;;;8.27;;
7267;SDS011;3675;43.276;27.962;2024-01-30T09:10:47;10.60;;;4.50;;
7267;SDS011;3675;43.276;27.962;2024-01-30T09:13:42;10.10;;;4.82;;
7267;SDS011;3675;43.276;27.962;2024-01-30T09:16:48;5.65;;;3.72;;
7267;SDS011;3675;43.276;27.962;2024-01-30T09:19:43;5.90;;;3.40;;
7267;SDS011;3675;43.276;27.962;2024-01-30T09:22:27;6.07;;;3.63;;
7267;SDS011;3675;43.276;27.962;2024-01-30T09:25:10;11.82;;;5.25;;
7267;SDS011;3675;43.276;27.962;2024-01-30T09:27:56;11.57;;;6.50;;
7267;SDS011;3675;43.276;27.962;2024-01-30T09:30:40;12.10;;;4.85;;
7267;SDS011;3675;43.276;27.962;2024-01-30T09:33:32;5.82;;;3.30;;
7267;SDS011;3675;43.276;27.962;2024-01-30T09:36:35;10.25;;;4.65;;
7267;SDS011;3675;43.276;27.962;2024-01-30T09:39:20;8.30;;;4.30;;
7267;SDS011;3675;43.276;27.962;2024-01-30T09:42:08;12.60;;;5.45;;
7267;SDS011;3675;43.276;27.962;2024-01-30T09:45:14;14.15;;;5.20;;
7267;SDS011;3675;43.276;27.962;2024-01-30T09:47:58;8.20;;;3.83;;
7267;SDS011;3675;43.276;27.962;2024-01-30T09:51:01;8.00;;;5.22;;
7267;SDS011;3675;43.276;27.962;2024-01-30T09:53:45;11.05;;;5.03;;
7267;SDS011;3675;43.276;27.962;2024-01-30T09:56:17;7.93;;;4.20;;
7267;SDS011;3675;43.276;27.962;2024-01-30T09:58:56;10.55;;;4.72;;
7267;SDS011;3675;43.276;27.962;2024-01-30T10:01:41;6.32;;;4.00;;
7267;SDS011;3675;43.276;27.962;2024-01-30T10:04:35;9.52;;;4.93;;
7267;SDS011;3675;43.276;27.962;2024-01-30T10:07:12;8.93;;;4.60;;
7267;SDS011;3675;43.276;27.962;2024-01-30T10:09:45;8.10;;;4.65;;
7267;SDS011;3675;43.276;27.962;2024-01-30T10:12:21;8.05;;;5.07;;
7267;SDS011;3675;43.276;27.962;2024-01-30T10:15:06;7.47;;;4.35;;
7267;SDS011;3675;43.276;27.962;2024-01-30T10:17:56;10.65;;;4.60;;
7267;SDS011;3675;43.276;27.962;2024-01-30T10:23:32;8.63;;;4.03;;
7267;SDS011;3675;43.276;27.962;2024-01-30T10:26:09;12.23;;;5.40;;
7267;SDS011;3675;43.276;27.962;2024-01-30T10:31:59;10.05;;;5.15;;
7267;SDS011;3675;43.276;27.962;2024-01-30T10:34:46;8.60;;;4.68;;
7267;SDS011;3675;43.276;27.962;2024-01-30T10:37:26;4.53;;;3.67;;
7267;SDS011;3675;43.276;27.962;2024-01-30T10:40:15;12.60;;;5.82;;
7267;SDS011;3675;43.276;27.962;2024-01-30T10:43:02;9.50;;;4.63;;
7267;SDS011;3675;43.276;27.962;2024-01-30T10:45:52;9.88;;;4.38;;
7267;SDS011;3675;43.276;27.962;2024-01-30T10:48:41;7.55;;;4.95;;
7267;SDS011;3675;43.276;27.962;2024-01-30T10:51:37;12.48;;;4.85;;
7267;SDS011;3675;43.276;27.962;2024-01-30T10:54:27;9.05;;;4.75;;
7267;SDS011;3675;43.276;27.962;2024-01-30T10:57:31;8.18;;;3.78;;
7267;SDS011;3675;43.276;27.962;2024-01-30T11:00:26;10.68;;;5.43;;
7267;SDS011;3675;43.276;27.962;2024-01-30T11:03:06;9.70;;;5.18;;
7267;SDS011;3675;43.276;27.962;2024-01-30T11:05:49;9.95;;;5.38;;
7267;SDS011;3675;43.276;27.962;2024-01-30T11:08:38;8.57;;;4.15;;
7267;SDS011;3675;43.276;27.962;2024-01-30T11:11:24;9.65;;;4.85;;
7267;SDS011;3675;43.276;27.962;2024-01-30T11:14:09;10.73;;;6.75;;
7267;SDS011;3675;43.276;27.962;2024-01-30T11:17:15;11.77;;;5.57;;
7267;SDS011;3675;43.276;27.962;2024-01-30T11:19:59;6.75;;;4.20;;
7267;SDS011;3675;43.276;27.962;2024-01-30T11:22:36;7.30;;;4.28;;
7267;SDS011;3675;43.276;27.962;2024-01-30T11:25:17;10.45;;;5.57;;
7267;SDS011;3675;43.276;27.962;2024-01-30T11:28:05;12.02;;;6.07;;
7267;SDS011;3675;43.276;27.962;2024-01-30T11:34:14;9.52;;;5.13;;
7267;SDS011;3675;43.276;27.962;2024-01-30T11:36:58;8.70;;;4.25;;
7267;SDS011;3675;43.276;27.962;2024-01-30T11:39:45;10.93;;;4.97;;
7267;SDS011;3675;43.276;27.962;2024-01-30T11:42:35;7.35;;;3.85;;
7267;SDS011;3675;43.276;27.962;2024-01-30T11:45:13;10.43;;;4.65;;
7267;SDS011;3675;43.276;27.962;2024-01-30T11:48:03;9.63;;;4.82;;
7267;SDS011;3675;43.276;27.962;2024-01-30T11:50:49;9.23;;;4.40;;
7267;SDS011;3675;43.276;27.962;2024-01-30T11:53:31;5.53;;;3.75;;
7267;SDS011;3675;43.276;27.962;2024-01-30T11:56:16;5.65;;;3.65;;
7267;SDS011;3675;43.276;27.962;2024-01-30T11:58:54;7.40;;;3.35;;
7267;SDS011;3675;43.276;27.962;2024-01-30T12:01:41;9.20;;;4.38;;
7267;SDS011;3675;43.276;27.962;2024-01-30T12:04:37;9.60;;;4.18;;
7267;SDS011;3675;43.276;27.962;2024-01-30T12:07:48;5.85;;;3.45;;
7267;SDS011;3675;43.276;27.962;2024-01-30T12:13:35;8.65;;;5.03;;
7267;SDS011;3675;43.276;27.962;2024-01-30T12:16:34;8.95;;;4.90;;
7267;SDS011;3675;43.276;27.962;2024-01-30T12:19:15;13.48;;;5.13;;
7267;SDS011;3675;43.276;27.962;2024-01-30T12:25:07;11.07;;;5.63;;
7267;SDS011;3675;43.276;27.962;2024-01-30T12:27:52;11.50;;;4.15;;
7267;SDS011;3675;43.276;27.962;2024-01-30T12:30:35;9.50;;;4.00;;
7267;SDS011;3675;43.276;27.962;2024-01-30T12:33:21;6.25;;;4.07;;
7267;SDS011;3675;43.276;27.962;2024-01-30T12:36:04;11.45;;;3.72;;
7267;SDS011;3675;43.276;27.962;2024-01-30T12:39:06;6.18;;;3.63;;
7267;SDS011;3675;43.276;27.962;2024-01-30T12:41:54;6.90;;;3.90;;
7267;SDS011;3675;43.276;27.962;2024-01-30T12:44:48;6.43;;;3.78;;
7267;SDS011;3675;43.276;27.962;2024-01-30T12:47:28;6.50;;;3.10;;
7267;SDS011;3675;43.276;27.962;2024-01-30T12:50:28;8.65;;;4.20;;
7267;SDS011;3675;43.276;27.962;2024-01-30T12:53:05;7.50;;;3.35;;
7267;SDS011;3675;43.276;27.962;2024-01-30T12:55:47;5.05;;;3.90;;
7267;SDS011;3675;43.276;27.962;2024-01-30T12:58:28;6.28;;;3.83;;
7267;SDS011;3675;43.276;27.962;2024-01-30T13:01:26;6.07;;;3.70;;
7267;SDS011;3675;43.276;27.962;2024-01-30T13:04:08;7.03;;;2.60;;
7267;SDS011;3675;43.276;27.962;2024-01-30T13:06:47;5.90;;;3.38;;
7267;SDS011;3675;43.276;27.962;2024-01-30T13:09:35;7.63;;;2.70;;
7267;SDS011;3675;43.276;27.962;2024-01-30T13:12:30;3.05;;;2.40;;
7267;SDS011;3675;43.276;27.962;2024-01-30T13:15:05;6.10;;;3.00;;
7267;SDS011;3675;43.276;27.962;2024-01-30T13:17:59;2.70;;;2.50;;
7267;SDS011;3675;43.276;27.962;2024-01-30T13:20:59;2.60;;;1.95;;
7267;SDS011;3675;43.276;27.962;2024-01-30T13:23:41;3.40;;;2.10;;
7267;SDS011;3675;43.276;27.962;2024-01-30T13:26:36;2.75;;;2.00;;
7267;SDS011;3675;43.276;27.962;2024-01-30T13:29:26;5.82;;;2.35;;
7267;SDS011;3675;43.276;27.962;2024-01-30T13:32:04;5.03;;;2.78;;
7267;SDS011;3675;43.276;27.962;2024-01-30T13:34:54;3.38;;;2.28;;
7267;SDS011;3675;43.276;27.962;2024-01-30T13:37:37;4.82;;;2.92;;
7267;SDS011;3675;43.276;27.962;2024-01-30T13:40:20;7.60;;;3.50;;
7267;SDS011;3675;43.276;27.962;2024-01-30T13:42:59;4.32;;;2.75;;
7267;SDS011;3675;43.276;27.962;2024-01-30T13:45:45;7.00;;;3.03;;
7267;SDS011;3675;43.276;27.962;2024-01-30T13:48:36;6.25;;;2.70;;
7267;SDS011;3675;43.276;27.962;2024-01-30T13:51:31;10.20;;;3.20;;
7267;SDS011;3675;43.276;27.962;2024-01-30T13:54:24;6.80;;;2.92;;
7267;SDS011;3675;43.276;27.962;2024-01-30T14:03:25;5.90;;;3.08;;
7267;SDS011;3675;43.276;27.962;2024-01-30T14:06:06;10.77;;;4.32;;
7267;SDS011;3675;43.276;27.962;2024-01-30T14:08:47;9.57;;;4.22;;
7267;SDS011;3675;43.276;27.962;2024-01-30T14:11:39;6.13;;;4.75;;
7267;SDS011;3675;43.276;27.962;2024-01-30T14:14:29;12.73;;;5.50;;
7267;SDS011;3675;43.276;27.962;2024-01-30T14:17:19;3.60;;;2.60;;
7267;SDS011;3675;43.276;27.962;2024-01-30T14:20:00;3.08;;;2.60;;
7267;SDS011;3675;43.276;27.962;2024-01-30T14:22:45;3.88;;;2.60;;
7267;SDS011;3675;43.276;27.962;2024-01-30T14:25:28;4.28;;;2.78;;
7267;SDS011;3675;43.276;27.962;2024-01-30T14:28:24;4.30;;;2.72;;
7267;SDS011;3675;43.276;27.962;2024-01-30T14:31:07;8.20;;;2.95;;
7267;SDS011;3675;43.276;27.962;2024-01-30T14:33:57;3.83;;;2.50;;
7267;SDS011;3675;43.276;27.962;2024-01-30T14:36:40;8.15;;;2.20;;
7267;SDS011;3675;43.276;27.962;2024-01-30T14:39:15;5.85;;;4.25;;
7267;SDS011;3675;43.276;27.962;2024-01-30T14:42:00;6.07;;;3.78;;
7267;SDS011;3675;43.276;27.962;2024-01-30T14:44:40;6.75;;;3.50;;
7267;SDS011;3675;43.276;27.962;2024-01-30T14:47:29;7.38;;;3.30;;
7267;SDS011;3675;43.276;27.962;2024-01-30T14:50:22;4.57;;;3.35;;
7267;SDS011;3675;43.276;27.962;2024-01-30T14:53:13;6.60;;;2.80;;
7267;SDS011;3675;43.276;27.962;2024-01-30T14:56:01;4.43;;;2.72;;
7267;SDS011;3675;43.276;27.962;2024-01-30T14:58:42;5.72;;;3.58;;
7267;SDS011;3675;43.276;27.962;2024-01-30T15:01:27;9.90;;;3.97;;
7267;SDS011;3675;43.276;27.962;2024-01-30T15:04:07;14.38;;;6.45;;
7267;SDS011;3675;43.276;27.962;2024-01-30T15:06:55;5.63;;;3.28;;
7267;SDS011;3675;43.276;27.962;2024-01-30T15:09:42;5.93;;;3.38;;
7267;SDS011;3675;43.276;27.962;2024-01-30T15:12:14;7.07;;;3.03;;
7267;SDS011;3675;43.276;27.962;2024-01-30T15:14:59;3.30;;;2.30;;
7267;SDS011;3675;43.276;27.962;2024-01-30T15:17:43;5.00;;;2.63;;
7267;SDS011;3675;43.276;27.962;2024-01-30T15:20:38;6.78;;;4.88;;
7267;SDS011;3675;43.276;27.962;2024-01-30T15:23:49;14.48;;;7.85;;
7267;SDS011;3675;43.276;27.962;2024-01-30T15:26:42;8.23;;;4.75;;
7267;SDS011;3675;43.276;27.962;2024-01-30T15:29:35;5.18;;;3.35;;
7267;SDS011;3675;43.276;27.962;2024-01-30T15:32:14;7.25;;;4.20;;
7267;SDS011;3675;43.276;27.962;2024-01-30T15:35:05;19.27;;;7.65;;
7267;SDS011;3675;43.276;27.962;2024-01-30T15:37:45;14.45;;;7.07;;
7267;SDS011;3675;43.276;27.962;2024-01-30T15:40:24;26.88;;;8.98;;
7267;SDS011;3675;43.276;27.962;2024-01-30T15:45:54;57.75;;;16.95;;
7267;SDS011;3675;43.276;27.962;2024-01-30T15:48:37;16.92;;;7.28;;
7267;SDS011;3675;43.276;27.962;2024-01-30T15:51:29;9.23;;;4.60;;
7267;SDS011;3675;43.276;27.962;2024-01-30T15:54:11;18.73;;;6.43;;
7267;SDS011;3675;43.276;27.962;2024-01-30T15:56:49;44.83;;;13.38;;
7267;SDS011;3675;43.276;27.962;2024-01-30T15:59:37;75.50;;;22.88;;
7267;SDS011;3675;43.276;27.962;2024-01-30T16:02:17;84.20;;;26.75;;
7267;SDS011;3675;43.276;27.962;2024-01-30T16:04:53;72.93;;;23.63;;
7267;SDS011;3675;43.276;27.962;2024-01-30T16:07:32;59.20;;;19.80;;
7267;SDS011;3675;43.276;27.962;2024-01-30T16:10:10;69.47;;;20.48;;
7267;SDS011;3675;43.276;27.962;2024-01-30T16:12:53;74.75;;;24.33;;
7267;SDS011;3675;43.276;27.962;2024-01-30T16:15:37;42.72;;;14.82;;
7267;SDS011;3675;43.276;27.962;2024-01-30T16:18:19;61.72;;;21.52;;
7267;SDS011;3675;43.276;27.962;2024-01-30T16:21:02;58.28;;;20.27;;
7267;SDS011;3675;43.276;27.962;2024-01-30T16:23:37;61.80;;;20.25;;
7267;SDS011;3675;43.276;27.962;2024-01-30T16:26:27;55.33;;;16.90;;
7267;SDS011;3675;43.276;27.962;2024-01-30T16:29:12;25.58;;;11.50;;
7267;SDS011;3675;43.276;27.962;2024-01-30T16:31:57;13.70;;;6.72;;
7267;SDS011;3675;43.276;27.962;2024-01-30T16:34:45;17.25;;;8.38;;
7267;SDS011;3675;43.276;27.962;2024-01-30T16:37:40;16.42;;;8.02;;
7267;SDS011;3675;43.276;27.962;2024-01-30T16:40:24;12.52;;;8.15;;
7267;SDS011;3675;43.276;27.962;2024-01-30T16:43:13;10.23;;;5.82;;
7267;SDS011;3675;43.276;27.962;2024-01-30T16:45:57;20.63;;;8.45;;
7267;SDS011;3675;43.276;27.962;2024-01-30T16:48:44;8.15;;;4.78;;
7267;SDS011;3675;43.276;27.962;2024-01-30T16:51:37;34.42;;;10.02;;
7267;SDS011;3675;43.276;27.962;2024-01-30T16:54:15;24.58;;;7.65;;
7267;SDS011;3675;43.276;27.962;2024-01-30T16:56:56;12.13;;;6.10;;
7267;SDS011;3675;43.276;27.962;2024-01-30T16:59:53;20.08;;;8.07;;
7267;SDS011;3675;43.276;27.962;2024-01-30T17:02:40;8.95;;;5.50;;
7267;SDS011;3675;43.276;27.962;2024-01-30T17:05:27;12.68;;;6.25;;
7267;SDS011;3675;43.276;27.962;2024-01-30T17:08:09;19.15;;;8.98;;
7267;SDS011;3675;43.276;27.962;2024-01-30T17:10:47;13.98;;;6.93;;